createdAt,value
2023-05-05T00:00:33.241Z,25.90
2023-05-05T00:01:33.347Z,26.07
2023-05-05T00:02:33.365Z,26.00
2023-05-05T00:03:33.399Z,25.99
2023-05-05T00:04:33.369Z,26.00
2023-05-05T00:05:33.418Z,26.01
2023-05-05T00:06:33.440Z,26.01
2023-05-05T00:07:33.459Z,25.94
2023-05-05T00:08:33.501Z,25.97
2023-05-05T00:09:33.566Z,25.98
2023-05-05T00:10:33.587Z,26.03
2023-05-05T00:11:33.646Z,26.03
2023-05-05T00:12:33.684Z,26.01
2023-05-05T00:13:33.693Z,26.07
2023-05-05T00:14:33.737Z,26.07
2023-05-05T00:15:33.763Z,26.01
2023-05-05T00:16:33.791Z,26.11
2023-05-05T00:17:33.884Z,26.02
2023-05-05T00:18:33.861Z,26.00
2023-05-05T00:19:33.872Z,26.05
2023-05-05T00:20:33.902Z,26.06
2023-05-05T00:21:33.931Z,26.06
2023-05-05T00:22:33.946Z,26.07
2023-05-05T00:23:33.998Z,26.08
2023-05-05T00:24:34.021Z,26.11
2023-05-05T00:25:34.038Z,26.14
2023-05-05T00:26:34.086Z,26.12
2023-05-05T00:27:34.114Z,26.12
2023-05-05T00:28:34.143Z,26.12
2023-05-05T00:29:34.190Z,26.15
2023-05-05T00:30:34.261Z,26.15
2023-05-05T00:31:34.350Z,26.17
2023-05-05T00:32:34.437Z,26.18
2023-05-05T00:33:34.533Z,26.17
2023-05-05T00:34:34.507Z,26.19
2023-05-05T00:35:34.602Z,26.22
2023-05-05T00:36:34.634Z,26.18
2023-05-05T00:37:34.672Z,26.21
2023-05-05T00:38:34.731Z,26.22
2023-05-05T00:39:34.817Z,26.19
2023-05-05T00:40:34.846Z,26.22
2023-05-05T00:41:34.901Z,26.24
2023-05-05T00:42:34.914Z,26.26
2023-05-05T00:43:34.944Z,26.25
2023-05-05T00:44:34.994Z,26.28
2023-05-05T00:45:35.046Z,26.26
2023-05-05T00:46:35.108Z,26.26
2023-05-05T00:47:35.160Z,26.29
2023-05-05T00:48:35.179Z,26.29
2023-05-05T00:49:35.232Z,26.29
2023-05-05T00:50:35.238Z,26.32
2023-05-05T00:51:35.256Z,26.40
2023-05-05T00:52:35.293Z,26.44
2023-05-05T00:53:35.351Z,26.40
2023-05-05T00:54:35.383Z,26.48
2023-05-05T00:55:35.425Z,26.45
2023-05-05T00:56:35.437Z,26.49
2023-05-05T00:57:35.503Z,26.48
2023-05-05T00:58:35.533Z,26.44
2023-05-05T00:59:35.540Z,26.44
2023-05-05T01:00:35.578Z,26.42
2023-05-05T01:01:35.638Z,26.42
2023-05-05T01:02:35.704Z,26.39
2023-05-05T01:03:35.750Z,26.42
2023-05-05T01:04:35.728Z,26.35
2023-05-05T01:05:35.751Z,26.38
2023-05-05T01:06:35.780Z,26.32
2023-05-05T01:07:35.814Z,26.29
2023-05-05T01:08:35.832Z,26.27
2023-05-05T01:09:35.885Z,26.22
2023-05-05T01:10:35.902Z,26.27
2023-05-05T01:11:35.917Z,26.28
2023-05-05T01:12:36.029Z,26.27
2023-05-05T01:13:35.997Z,26.25
2023-05-05T01:14:36.021Z,26.29
2023-05-05T01:15:36.046Z,26.32
2023-05-05T01:16:36.124Z,26.31
2023-05-05T01:17:36.115Z,26.28
2023-05-05T01:18:36.116Z,26.34
2023-05-05T01:19:36.153Z,26.30
2023-05-05T01:20:36.206Z,26.28
2023-05-05T01:21:36.213Z,26.33
2023-05-05T01:22:36.438Z,26.34
2023-05-05T01:23:36.246Z,26.33
2023-05-05T01:24:36.250Z,26.33
2023-05-05T01:25:36.283Z,26.34
2023-05-05T01:26:36.340Z,26.34
2023-05-05T01:27:36.364Z,26.35
2023-05-05T01:28:36.368Z,26.33
2023-05-05T01:29:36.407Z,26.37
2023-05-05T01:30:36.425Z,26.37
2023-05-05T01:31:36.543Z,26.37
2023-05-05T01:32:36.492Z,26.37
2023-05-05T01:33:36.486Z,26.37
2023-05-05T01:34:36.542Z,26.38
2023-05-05T01:35:36.592Z,26.38
2023-05-05T01:36:36.620Z,26.35
2023-05-05T01:37:36.617Z,26.35
2023-05-05T01:38:36.663Z,26.40
2023-05-05T01:39:36.706Z,26.38
2023-05-05T01:40:36.707Z,26.38
2023-05-05T01:41:36.745Z,26.38
2023-05-05T01:42:36.861Z,26.40
2023-05-05T01:43:36.769Z,26.37
2023-05-05T01:44:36.789Z,26.40
2023-05-05T01:45:36.895Z,26.41
2023-05-05T01:46:36.960Z,26.40
2023-05-05T01:47:36.868Z,26.43
2023-05-05T01:48:36.883Z,26.41
2023-05-05T01:49:36.901Z,26.45
2023-05-05T01:50:36.934Z,26.38
2023-05-05T01:51:36.941Z,26.41
2023-05-05T01:52:36.971Z,26.43
2023-05-05T01:53:36.991Z,26.40
2023-05-05T01:54:37.013Z,26.38
2023-05-05T01:55:37.026Z,26.41
2023-05-05T01:56:37.033Z,26.41
2023-05-05T01:57:37.079Z,26.43
2023-05-05T01:58:37.068Z,26.41
2023-05-05T01:59:37.085Z,26.41
2023-05-05T02:00:37.106Z,26.41
2023-05-05T02:01:37.178Z,26.46
2023-05-05T02:02:37.202Z,26.44
2023-05-05T02:03:37.177Z,26.47
2023-05-05T02:04:37.187Z,26.46
2023-05-05T02:05:37.182Z,26.45
2023-05-05T02:06:37.220Z,26.45
2023-05-05T02:07:37.236Z,26.47
2023-05-05T02:08:37.261Z,26.46
2023-05-05T02:09:37.277Z,26.45
2023-05-05T02:10:37.302Z,26.50
2023-05-05T02:11:37.314Z,26.47
2023-05-05T02:12:37.382Z,26.44
2023-05-05T02:13:37.406Z,26.43
2023-05-05T02:14:37.356Z,26.48
2023-05-05T02:15:37.413Z,26.50
2023-05-05T02:16:37.418Z,26.46
2023-05-05T02:17:37.457Z,26.46
2023-05-05T02:18:37.511Z,26.50
2023-05-05T02:19:37.558Z,26.53
2023-05-05T02:20:37.557Z,26.43
2023-05-05T02:21:37.612Z,26.48
2023-05-05T02:22:37.623Z,26.47
2023-05-05T02:23:37.648Z,26.48
2023-05-05T02:24:37.656Z,26.48
2023-05-05T02:25:37.689Z,26.50
2023-05-05T02:26:37.712Z,26.48
2023-05-05T02:27:37.722Z,26.48
2023-05-05T02:28:37.815Z,26.53
2023-05-05T02:29:37.753Z,26.50
2023-05-05T02:30:37.772Z,26.47
2023-05-05T02:31:37.859Z,26.49
2023-05-05T02:32:37.908Z,26.50
2023-05-05T02:33:37.949Z,26.54
2023-05-05T02:34:38.015Z,26.54
2023-05-05T02:35:38.084Z,26.53
2023-05-05T02:36:38.127Z,26.51
2023-05-05T02:37:38.197Z,26.53
2023-05-05T02:38:38.249Z,26.50
2023-05-05T02:39:38.296Z,26.56
2023-05-05T02:40:38.368Z,26.53
2023-05-05T02:41:38.416Z,26.53
2023-05-05T02:42:38.418Z,26.54
2023-05-05T02:43:38.417Z,26.53
2023-05-05T02:44:38.558Z,26.46
2023-05-05T02:45:38.448Z,26.51
2023-05-05T02:46:38.556Z,26.53
2023-05-05T02:47:38.570Z,26.51
2023-05-05T02:48:38.547Z,26.50
2023-05-05T02:49:38.645Z,26.51
2023-05-05T02:50:38.666Z,26.53
2023-05-05T02:51:38.672Z,26.49
2023-05-05T02:52:38.720Z,26.51
2023-05-05T02:53:38.697Z,26.51
2023-05-05T02:54:38.717Z,26.50
2023-05-05T02:55:38.735Z,26.49
2023-05-05T02:56:38.754Z,26.56
2023-05-05T02:57:38.831Z,26.51
2023-05-05T02:58:38.804Z,26.56
2023-05-05T02:59:38.809Z,26.50
2023-05-05T03:00:38.820Z,26.50
2023-05-05T03:01:38.999Z,26.56
2023-05-05T03:02:38.979Z,26.51
2023-05-05T03:03:39.103Z,26.50
2023-05-05T03:04:38.865Z,26.51
2023-05-05T03:05:38.883Z,26.53
2023-05-05T03:06:38.901Z,26.51
2023-05-05T03:07:38.939Z,26.51
2023-05-05T03:08:38.932Z,26.47
2023-05-05T03:09:38.947Z,26.46
2023-05-05T03:10:38.953Z,26.49
2023-05-05T03:11:38.982Z,26.50
2023-05-05T03:12:39.033Z,26.49
2023-05-05T03:13:38.992Z,26.50
2023-05-05T03:14:39.020Z,26.47
2023-05-05T03:15:39.006Z,26.50
2023-05-05T03:16:39.094Z,26.50
2023-05-05T03:17:39.087Z,26.49
2023-05-05T03:18:39.069Z,26.50
2023-05-05T03:19:39.074Z,26.45
2023-05-05T03:20:39.078Z,26.49
2023-05-05T03:21:39.090Z,26.49
2023-05-05T03:22:39.119Z,26.46
2023-05-05T03:23:39.140Z,26.48
2023-05-05T03:24:39.173Z,26.50
2023-05-05T03:25:39.167Z,26.50
2023-05-05T03:26:39.224Z,26.50
2023-05-05T03:27:39.276Z,26.46
2023-05-05T03:28:39.320Z,26.46
2023-05-05T03:29:41.028Z,26.46
2023-05-05T03:30:39.439Z,26.49
2023-05-05T03:31:39.580Z,26.46
2023-05-05T03:32:39.620Z,26.47
2023-05-05T03:33:39.618Z,26.49
2023-05-05T03:34:39.659Z,26.46
2023-05-05T03:35:39.732Z,26.45
2023-05-05T03:36:39.779Z,26.43
2023-05-05T03:37:39.876Z,26.46
2023-05-05T03:38:39.889Z,26.45
2023-05-05T03:39:39.898Z,26.46
2023-05-05T03:40:44.186Z,26.41
2023-05-05T03:41:39.926Z,26.43
2023-05-05T03:42:39.910Z,26.45
2023-05-05T03:43:39.896Z,26.43
2023-05-05T03:44:39.884Z,26.46
2023-05-05T03:45:39.903Z,26.45
2023-05-05T03:46:39.870Z,26.46
2023-05-05T03:47:39.902Z,26.45
2023-05-05T03:48:39.867Z,26.47
2023-05-05T03:49:39.868Z,26.45
2023-05-05T03:50:39.845Z,26.41
2023-05-05T03:51:39.837Z,26.45
2023-05-05T03:52:39.839Z,26.45
2023-05-05T03:53:39.806Z,26.45
2023-05-05T03:54:39.818Z,26.49
2023-05-05T03:55:39.806Z,26.46
2023-05-05T03:56:39.786Z,26.46
2023-05-05T03:57:39.813Z,26.43
2023-05-05T03:58:39.806Z,26.45
2023-05-05T03:59:39.809Z,26.46
2023-05-05T04:00:39.827Z,26.46
2023-05-05T04:01:39.895Z,26.46
2023-05-05T04:02:39.890Z,26.43
2023-05-05T04:03:39.942Z,26.43
2023-05-05T04:04:39.919Z,26.45
2023-05-05T04:05:39.994Z,26.49
2023-05-05T04:06:40.057Z,26.46
2023-05-05T04:07:40.094Z,26.40
2023-05-05T04:08:40.133Z,26.40
2023-05-05T04:09:40.154Z,26.42
2023-05-05T04:10:40.153Z,26.39
2023-05-05T04:11:40.221Z,26.43
2023-05-05T04:12:40.285Z,26.41
2023-05-05T04:13:40.277Z,26.45
2023-05-05T04:14:40.284Z,26.42
2023-05-05T04:15:40.291Z,26.45
2023-05-05T04:16:40.309Z,26.38
2023-05-05T04:17:40.347Z,26.42
2023-05-05T04:18:40.340Z,26.46
2023-05-05T04:19:40.362Z,26.42
2023-05-05T04:20:40.409Z,26.46
2023-05-05T04:21:40.424Z,26.42
2023-05-05T04:22:40.459Z,26.36
2023-05-05T04:23:40.520Z,26.42
2023-05-05T04:24:40.565Z,26.44
2023-05-05T04:25:40.634Z,26.38
2023-05-05T04:26:40.701Z,26.42
2023-05-05T04:27:40.717Z,26.39
2023-05-05T04:28:40.754Z,26.39
2023-05-05T04:29:40.751Z,26.39
2023-05-05T04:30:40.769Z,26.39
2023-05-05T04:31:40.864Z,26.41
2023-05-05T04:32:40.866Z,26.36
2023-05-05T04:33:40.837Z,26.38
2023-05-05T04:34:40.816Z,26.38
2023-05-05T04:35:40.838Z,26.41
2023-05-05T04:36:40.864Z,26.36
2023-05-05T04:37:40.923Z,26.36
2023-05-05T04:38:41.012Z,26.35
2023-05-05T04:39:41.044Z,26.39
2023-05-05T04:40:41.110Z,26.36
2023-05-05T04:41:41.143Z,26.38
2023-05-05T04:42:41.164Z,26.35
2023-05-05T04:43:41.135Z,26.36
2023-05-05T04:44:41.134Z,26.36
2023-05-05T04:45:41.156Z,26.33
2023-05-05T04:46:41.210Z,26.34
2023-05-05T04:47:41.189Z,26.36
2023-05-05T04:48:41.151Z,26.31
2023-05-05T04:49:41.159Z,26.33
2023-05-05T04:50:41.164Z,26.34
2023-05-05T04:51:41.182Z,26.34
2023-05-05T04:52:41.235Z,26.36
2023-05-05T04:53:41.311Z,26.31
2023-05-05T04:54:41.361Z,26.33
2023-05-05T04:55:41.397Z,26.30
2023-05-05T04:56:41.416Z,26.31
2023-05-05T04:57:41.423Z,26.30
2023-05-05T04:58:41.437Z,26.24
2023-05-05T04:59:41.444Z,26.21
2023-05-05T05:00:41.466Z,25.65
2023-05-05T05:01:41.528Z,25.07
2023-05-05T05:02:41.578Z,24.56
2023-05-05T05:03:41.720Z,24.11
2023-05-05T05:04:41.629Z,23.89
2023-05-05T05:05:41.682Z,23.68
2023-05-05T05:06:41.734Z,23.47
2023-05-05T05:07:41.758Z,23.15
2023-05-05T05:08:41.768Z,22.82
2023-05-05T05:09:41.785Z,22.78
2023-05-05T05:10:41.815Z,22.78
2023-05-05T05:11:41.822Z,22.56
2023-05-05T05:12:41.843Z,22.32
2023-05-05T05:13:41.821Z,22.22
2023-05-05T05:14:41.884Z,22.14
2023-05-05T05:15:41.877Z,22.06
2023-05-05T05:16:41.938Z,21.85
2023-05-05T05:17:41.942Z,21.56
2023-05-05T05:18:41.958Z,21.30
2023-05-05T05:19:41.997Z,21.25
2023-05-05T05:20:42.028Z,21.59
2023-05-05T05:21:42.067Z,22.08
2023-05-05T05:22:42.085Z,22.49
2023-05-05T05:23:42.132Z,22.81
2023-05-05T05:24:42.182Z,23.04
2023-05-05T05:25:42.186Z,23.34
2023-05-05T05:26:42.204Z,23.56
2023-05-05T05:27:42.224Z,23.93
2023-05-05T05:28:42.249Z,24.19
2023-05-05T05:29:42.324Z,24.29
2023-05-05T05:30:42.362Z,24.70
2023-05-05T05:31:42.495Z,24.92
2023-05-05T05:32:42.467Z,24.96
2023-05-05T05:33:42.589Z,25.13
2023-05-05T05:34:42.577Z,25.48
2023-05-05T05:35:42.637Z,25.89
2023-05-05T05:36:42.677Z,26.47
2023-05-05T05:37:42.715Z,26.67
2023-05-05T05:38:42.736Z,26.94
2023-05-05T05:39:43.756Z,27.67
2023-05-05T05:40:42.736Z,28.62
2023-05-05T05:41:42.799Z,28.36
2023-05-05T05:42:42.841Z,28.36
2023-05-05T05:43:43.061Z,28.56
2023-05-05T05:44:42.888Z,28.67
2023-05-05T05:45:43.046Z,29.06
2023-05-05T05:46:43.051Z,28.97
2023-05-05T05:47:42.983Z,29.23
2023-05-05T05:48:43.012Z,29.89
2023-05-05T05:49:43.034Z,29.63
2023-05-05T05:50:43.074Z,29.62
2023-05-05T05:51:43.124Z,29.53
2023-05-05T05:52:43.161Z,29.62
2023-05-05T05:53:43.208Z,29.79
2023-05-05T05:54:43.224Z,29.67
2023-05-05T05:55:43.256Z,29.79
2023-05-05T05:56:43.292Z,29.82
2023-05-05T05:57:43.299Z,29.86
2023-05-05T05:58:43.322Z,29.90
2023-05-05T05:59:43.341Z,29.88
2023-05-05T06:00:43.357Z,29.82
2023-05-05T06:01:43.357Z,29.84
2023-05-05T06:02:43.459Z,29.84
2023-05-05T06:03:43.672Z,29.87
2023-05-05T06:04:43.500Z,30.08
2023-05-05T06:05:43.535Z,30.05
2023-05-05T06:06:43.589Z,29.97
2023-05-05T06:07:43.569Z,29.94
2023-05-05T06:08:43.578Z,29.99
2023-05-05T06:09:43.654Z,30.27
2023-05-05T06:10:43.685Z,30.11
2023-05-05T06:11:43.698Z,30.06
2023-05-05T06:12:43.736Z,30.04
2023-05-05T06:13:43.733Z,30.01
2023-05-05T06:14:43.742Z,29.98
2023-05-05T06:15:43.782Z,30.01
2023-05-05T06:16:43.746Z,30.22
2023-05-05T06:17:43.795Z,30.13
2023-05-05T06:18:44.089Z,30.12
2023-05-05T06:19:43.759Z,30.03
2023-05-05T06:20:43.746Z,30.20
2023-05-05T06:21:43.769Z,30.10
2023-05-05T06:22:43.758Z,30.08
2023-05-05T06:23:43.799Z,30.11
2023-05-05T06:24:43.795Z,30.11
2023-05-05T06:25:43.813Z,30.05
2023-05-05T06:26:43.831Z,30.04
2023-05-05T06:27:43.824Z,30.11
2023-05-05T06:28:43.845Z,30.13
2023-05-05T06:29:43.847Z,30.22
2023-05-05T06:30:43.861Z,30.29
2023-05-05T06:31:44.121Z,30.36
2023-05-05T06:32:43.946Z,29.65
2023-05-05T06:33:43.939Z,28.75
2023-05-05T06:34:43.971Z,28.32
2023-05-05T06:35:43.992Z,28.02
2023-05-05T06:36:44.063Z,28.31
2023-05-05T06:37:44.069Z,28.36
2023-05-05T06:38:44.111Z,28.25
2023-05-05T06:39:44.155Z,28.14
2023-05-05T06:40:44.183Z,28.00
2023-05-05T06:41:44.233Z,27.86
2023-05-05T06:42:44.283Z,27.75
2023-05-05T06:43:44.600Z,28.00
2023-05-05T06:44:44.372Z,27.48
2023-05-05T06:45:44.431Z,27.59
2023-05-05T06:46:44.621Z,27.33
2023-05-05T06:47:44.612Z,27.34
2023-05-05T06:48:44.575Z,27.33
2023-05-05T06:49:44.642Z,27.36
2023-05-05T06:50:44.683Z,27.25
2023-05-05T06:51:44.736Z,27.17
2023-05-05T06:52:44.771Z,27.14
2023-05-05T06:53:45.105Z,27.05
2023-05-05T06:54:44.903Z,27.02
2023-05-05T06:55:44.900Z,27.01
2023-05-05T06:56:44.935Z,27.18
2023-05-05T06:57:44.985Z,27.20
2023-05-05T06:58:45.025Z,27.40
2023-05-05T06:59:45.073Z,27.45
2023-05-05T07:00:45.184Z,27.60
2023-05-05T07:01:45.165Z,27.63
2023-05-05T07:02:45.260Z,27.67
2023-05-05T07:03:45.326Z,27.69
2023-05-05T07:04:45.283Z,27.72
2023-05-05T07:05:45.271Z,27.91
2023-05-05T07:06:45.285Z,27.92
2023-05-05T07:07:45.281Z,28.09
2023-05-05T07:08:45.645Z,28.09
2023-05-05T07:09:45.288Z,28.15
2023-05-05T07:10:45.334Z,28.23
2023-05-05T07:11:45.595Z,28.27
2023-05-05T07:12:45.420Z,28.30
2023-05-05T07:13:45.406Z,28.28
2023-05-05T07:14:45.438Z,28.43
2023-05-05T07:15:45.461Z,28.61
2023-05-05T07:16:45.564Z,28.64
2023-05-05T07:17:45.536Z,28.63
2023-05-05T07:18:45.531Z,28.55
2023-05-05T07:19:45.599Z,28.51
2023-05-05T07:20:45.550Z,28.48
2023-05-05T07:21:45.559Z,28.43
2023-05-05T07:22:45.842Z,28.48
2023-05-05T07:23:45.573Z,28.35
2023-05-05T07:24:45.591Z,28.39
2023-05-05T07:25:45.626Z,28.32
2023-05-05T07:26:45.740Z,27.57
2023-05-05T07:27:45.722Z,27.47
2023-05-05T07:28:46.102Z,27.65
2023-05-05T07:29:45.787Z,27.89
2023-05-05T07:30:45.972Z,27.35
2023-05-05T07:31:46.178Z,27.64
2023-05-05T07:32:45.962Z,27.83
2023-05-05T07:33:45.866Z,27.85
2023-05-05T07:34:45.897Z,27.88
2023-05-05T07:35:45.907Z,27.96
2023-05-05T07:36:46.129Z,28.12
2023-05-05T07:37:45.918Z,28.20
2023-05-05T07:38:45.922Z,28.28
2023-05-05T07:39:45.918Z,28.30
2023-05-05T07:40:45.912Z,28.41
2023-05-05T07:41:45.950Z,28.52
2023-05-05T07:42:46.066Z,28.58
2023-05-05T07:43:46.094Z,28.54
2023-05-05T07:44:46.104Z,28.54
2023-05-05T07:45:46.127Z,28.60
2023-05-05T07:46:46.129Z,28.54
2023-05-05T07:47:46.215Z,28.57
2023-05-05T07:48:46.606Z,28.60
2023-05-05T07:49:46.180Z,28.68
2023-05-05T07:50:46.283Z,28.66
2023-05-05T07:51:46.302Z,28.69
2023-05-05T07:52:49.950Z,28.63
2023-05-05T07:53:47.341Z,28.73
2023-05-05T07:54:46.338Z,28.61
2023-05-05T07:55:46.349Z,28.61
2023-05-05T07:56:46.345Z,28.54
2023-05-05T07:57:46.332Z,28.47
2023-05-05T07:58:46.378Z,28.57
2023-05-05T07:59:46.331Z,28.55
2023-05-05T08:00:46.329Z,28.51
2023-05-05T08:01:46.628Z,28.50
2023-05-05T08:02:46.372Z,28.44
2023-05-05T08:03:46.375Z,28.41
2023-05-05T08:04:46.309Z,28.46
2023-05-05T08:05:46.282Z,28.50
2023-05-05T08:06:46.279Z,28.44
2023-05-05T08:07:46.257Z,28.47
2023-05-05T08:08:46.236Z,28.50
2023-05-05T08:09:46.638Z,28.47
2023-05-05T08:10:46.248Z,27.75
2023-05-05T08:11:46.231Z,28.33
2023-05-05T08:12:46.240Z,28.27
2023-05-05T08:13:46.308Z,27.72
2023-05-05T08:14:46.431Z,28.03
2023-05-05T08:15:46.403Z,27.84
2023-05-05T08:16:46.358Z,27.75
2023-05-05T08:17:46.639Z,27.49
2023-05-05T08:18:46.400Z,27.27
2023-05-05T08:19:46.651Z,26.85
2023-05-05T08:20:46.370Z,26.82
2023-05-05T08:21:46.371Z,27.10
2023-05-05T08:22:46.413Z,27.14
2023-05-05T08:23:46.661Z,27.05
2023-05-05T08:24:46.426Z,27.25
2023-05-05T08:25:46.453Z,27.17
2023-05-05T08:26:46.498Z,27.13
2023-05-05T08:27:46.563Z,27.14
2023-05-05T08:28:46.611Z,27.05
2023-05-05T08:29:46.624Z,27.10
2023-05-05T08:30:46.762Z,27.13
2023-05-05T08:31:46.801Z,27.13
2023-05-05T08:32:46.812Z,27.14
2023-05-05T08:33:46.849Z,26.92
2023-05-05T08:34:46.800Z,26.93
2023-05-05T08:35:46.803Z,27.22
2023-05-05T08:36:46.844Z,27.61
2023-05-05T08:37:46.828Z,27.91
2023-05-05T08:38:46.831Z,27.81
2023-05-05T08:39:46.894Z,28.19
2023-05-05T08:40:46.915Z,28.02
2023-05-05T08:41:46.975Z,28.08
2023-05-05T08:42:46.997Z,28.08
2023-05-05T08:43:47.040Z,28.42
2023-05-05T08:44:47.092Z,28.31
2023-05-05T08:45:47.142Z,28.40
2023-05-05T08:46:47.341Z,28.37
2023-05-05T08:47:47.661Z,28.63
2023-05-05T08:48:47.212Z,28.79
2023-05-05T08:49:47.232Z,28.85
2023-05-05T08:50:47.279Z,29.28
2023-05-05T08:51:47.492Z,29.27
2023-05-05T08:52:48.644Z,29.17
2023-05-05T08:53:47.451Z,29.26
2023-05-05T08:54:47.650Z,29.44
2023-05-05T08:55:47.548Z,29.54
2023-05-05T08:56:47.566Z,29.52
2023-05-05T08:57:47.632Z,29.50
2023-05-05T08:58:47.739Z,29.52
2023-05-05T08:59:47.665Z,29.59
2023-05-05T09:00:47.729Z,29.62
2023-05-05T09:01:47.738Z,29.61
2023-05-05T09:02:48.040Z,29.59
2023-05-05T09:03:47.852Z,29.68
2023-05-05T09:04:48.151Z,29.62
2023-05-05T09:05:47.932Z,29.69
2023-05-05T09:06:47.954Z,29.88
2023-05-05T09:07:48.013Z,29.85
2023-05-05T09:08:48.104Z,29.84
2023-05-05T09:09:48.133Z,29.88
2023-05-05T09:10:48.227Z,29.80
2023-05-05T09:11:48.244Z,30.17
2023-05-05T09:12:48.311Z,30.17
2023-05-05T09:13:48.371Z,30.42
2023-05-05T09:14:48.357Z,30.51
2023-05-05T09:15:48.320Z,30.24
2023-05-05T09:16:48.467Z,30.35
2023-05-05T09:17:48.617Z,30.25
2023-05-05T09:18:48.452Z,30.26
2023-05-05T09:19:48.452Z,30.28
2023-05-05T09:20:48.481Z,30.61
2023-05-05T09:21:48.536Z,30.86
2023-05-05T09:22:48.537Z,30.77
2023-05-05T09:23:48.608Z,30.76
2023-05-05T09:24:48.638Z,31.38
2023-05-05T09:25:48.742Z,30.73
2023-05-05T09:26:48.773Z,30.14
2023-05-05T09:27:48.820Z,30.02
2023-05-05T09:28:49.029Z,29.52
2023-05-05T09:29:48.878Z,29.34
2023-05-05T09:30:48.975Z,29.46
2023-05-05T09:31:48.959Z,29.19
2023-05-05T09:32:49.220Z,27.95
2023-05-05T09:33:49.053Z,28.56
2023-05-05T09:34:49.200Z,27.53
2023-05-05T09:35:49.092Z,26.84
2023-05-05T09:36:49.171Z,27.72
2023-05-05T09:37:49.153Z,27.64
2023-05-05T09:38:49.163Z,27.98
2023-05-05T09:39:49.244Z,28.10
2023-05-05T09:40:49.288Z,27.95
2023-05-05T09:41:49.284Z,27.78
2023-05-05T09:42:49.311Z,27.77
2023-05-05T09:43:49.325Z,27.86
2023-05-05T09:44:49.393Z,27.90
2023-05-05T09:45:49.418Z,27.85
2023-05-05T09:46:49.493Z,27.76
2023-05-05T09:47:49.569Z,27.52
2023-05-05T09:48:49.554Z,27.75
2023-05-05T09:49:49.535Z,27.72
2023-05-05T09:50:49.759Z,27.76
2023-05-05T09:51:49.625Z,27.62
2023-05-05T09:52:49.662Z,27.74
2023-05-05T09:53:49.764Z,27.73
2023-05-05T09:54:49.762Z,27.76
2023-05-05T09:55:49.783Z,27.60
2023-05-05T09:56:49.802Z,26.60
2023-05-05T09:57:49.794Z,26.68
2023-05-05T09:58:49.837Z,26.45
2023-05-05T09:59:49.857Z,26.92
2023-05-05T10:00:49.913Z,26.96
2023-05-05T10:01:49.927Z,27.37
2023-05-05T10:02:50.003Z,27.23
2023-05-05T10:03:49.983Z,27.19
2023-05-05T10:04:50.196Z,27.37
2023-05-05T10:05:50.099Z,27.59
2023-05-05T10:06:50.228Z,27.49
2023-05-05T10:07:50.201Z,27.26
2023-05-05T10:08:50.244Z,26.09
2023-05-05T10:09:50.303Z,26.61
2023-05-05T10:10:50.369Z,26.94
2023-05-05T10:11:50.443Z,27.11
2023-05-05T10:12:50.563Z,27.27
2023-05-05T10:13:50.521Z,27.20
2023-05-05T10:14:50.557Z,27.33
2023-05-05T10:15:50.604Z,27.23
2023-05-05T10:16:50.636Z,27.22
2023-05-05T10:18:02.193Z,27.28
2023-05-05T10:18:51.601Z,27.21
2023-05-05T10:19:50.602Z,27.39
2023-05-05T10:20:50.895Z,27.06
2023-05-05T10:21:50.702Z,27.77
2023-05-05T10:22:50.684Z,27.24
2023-05-05T10:23:50.593Z,27.27
2023-05-05T10:24:50.547Z,26.86
2023-05-05T10:25:50.553Z,27.08
2023-05-05T10:26:50.584Z,27.08
2023-05-05T10:27:50.540Z,27.08
2023-05-05T10:28:50.554Z,26.97
2023-05-05T10:29:50.532Z,27.19
2023-05-05T10:30:50.530Z,27.08
2023-05-05T10:31:50.550Z,27.10
2023-05-05T10:33:00.861Z,27.24
2023-05-05T10:33:51.593Z,27.26
2023-05-05T10:34:50.527Z,27.40
2023-05-05T10:35:50.494Z,27.77
2023-05-05T10:36:50.511Z,27.93
2023-05-05T10:37:50.502Z,28.34
2023-05-05T10:38:50.548Z,28.49
2023-05-05T10:39:50.477Z,28.31
2023-05-05T10:40:50.458Z,28.55
2023-05-05T10:41:50.472Z,28.61
2023-05-05T10:42:50.461Z,29.06
2023-05-05T10:43:50.458Z,29.38
2023-05-05T10:44:50.448Z,29.24
2023-05-05T10:45:50.523Z,29.31
2023-05-05T10:46:50.440Z,29.37
2023-05-05T10:47:50.560Z,29.65
2023-05-05T10:48:50.711Z,29.61
2023-05-05T10:49:50.611Z,29.39
2023-05-05T10:50:50.680Z,29.01
2023-05-05T10:51:50.656Z,29.56
2023-05-05T10:52:50.725Z,29.49
2023-05-05T10:53:50.773Z,29.25
2023-05-05T10:54:50.908Z,29.29
2023-05-05T10:55:50.834Z,29.29
2023-05-05T10:56:50.881Z,29.25
2023-05-05T10:57:50.907Z,29.21
2023-05-05T10:58:59.787Z,29.48
2023-05-05T10:59:52.214Z,29.77
2023-05-05T11:00:50.958Z,29.48
2023-05-05T11:01:50.991Z,29.59
2023-05-05T11:02:50.942Z,29.47
2023-05-05T11:03:50.961Z,29.60
2023-05-05T11:04:50.934Z,29.41
2023-05-05T11:05:50.896Z,29.73
2023-05-05T11:06:50.925Z,29.44
2023-05-05T11:07:50.880Z,29.33
2023-05-05T11:08:50.893Z,29.13
2023-05-05T11:09:51.209Z,29.15
2023-05-05T11:10:51.084Z,29.09
2023-05-05T11:11:50.865Z,28.82
2023-05-05T11:12:50.906Z,28.85
2023-05-05T11:13:50.863Z,28.90
2023-05-05T11:14:51.190Z,28.99
2023-05-05T11:15:50.861Z,28.74
2023-05-05T11:16:50.932Z,28.79
2023-05-05T11:17:50.908Z,29.60
2023-05-05T11:18:50.887Z,30.02
2023-05-05T11:19:51.212Z,29.55
2023-05-05T11:20:50.956Z,28.51
2023-05-05T11:21:51.132Z,28.54
2023-05-05T11:22:51.024Z,28.23
2023-05-05T11:23:51.121Z,27.96
2023-05-05T11:24:51.168Z,27.97
2023-05-05T11:25:51.212Z,27.74
2023-05-05T11:26:51.373Z,27.66
2023-05-05T11:27:51.305Z,27.52
2023-05-05T11:28:51.334Z,27.65
2023-05-05T11:29:52.137Z,27.53
2023-05-05T11:30:51.488Z,27.57
2023-05-05T11:31:51.473Z,27.23
2023-05-05T11:32:51.545Z,27.16
2023-05-05T11:33:51.557Z,27.14
2023-05-05T11:34:51.562Z,27.32
2023-05-05T11:35:51.545Z,27.35
2023-05-05T11:36:51.528Z,27.42
2023-05-05T11:37:51.521Z,27.38
2023-05-05T11:38:51.524Z,27.36
2023-05-05T11:39:51.509Z,27.26
2023-05-05T11:40:51.532Z,27.22
2023-05-05T11:41:51.548Z,27.19
2023-05-05T11:42:51.546Z,27.24
2023-05-05T11:43:51.576Z,27.13
2023-05-05T11:44:51.628Z,27.11
2023-05-05T11:45:51.693Z,27.16
2023-05-05T11:46:51.738Z,27.11
2023-05-05T11:47:51.808Z,27.06
2023-05-05T11:48:51.814Z,27.18
2023-05-05T11:49:51.832Z,27.07
2023-05-05T11:50:51.903Z,27.07
2023-05-05T11:51:51.939Z,27.00
2023-05-05T11:52:51.990Z,27.04
2023-05-05T11:53:52.021Z,27.05
2023-05-05T11:54:52.080Z,27.01
2023-05-05T11:55:52.104Z,26.96
2023-05-05T11:56:52.124Z,27.01
2023-05-05T11:57:52.142Z,26.93
2023-05-05T11:58:52.207Z,26.98
2023-05-05T11:59:52.163Z,26.99
2023-05-05T12:00:52.166Z,26.95
2023-05-05T12:01:52.195Z,26.95
2023-05-05T12:02:52.285Z,26.93
2023-05-05T12:03:52.466Z,26.92
2023-05-05T12:04:52.322Z,26.90
2023-05-05T12:05:52.244Z,26.92
2023-05-05T12:06:52.284Z,26.89
2023-05-05T12:07:52.280Z,26.93
2023-05-05T12:08:52.293Z,26.85
2023-05-05T12:09:52.329Z,26.89
2023-05-05T12:10:52.385Z,26.89
2023-05-05T12:11:52.414Z,26.90
2023-05-05T12:12:55.158Z,26.84
2023-05-05T12:13:52.405Z,26.85
2023-05-05T12:14:52.483Z,26.87
2023-05-05T12:15:52.440Z,26.81
2023-05-05T12:16:52.409Z,26.81
2023-05-05T12:17:52.452Z,26.67
2023-05-05T12:18:52.385Z,26.57
2023-05-05T12:19:52.433Z,26.43
2023-05-05T12:20:52.364Z,26.34
2023-05-05T12:21:52.380Z,26.46
2023-05-05T12:22:52.362Z,26.52
2023-05-05T12:23:52.360Z,26.57
2023-05-05T12:24:53.804Z,26.54
2023-05-05T12:25:52.503Z,26.54
2023-05-05T12:26:52.622Z,26.58
2023-05-05T12:27:52.509Z,26.53
2023-05-05T12:28:52.526Z,26.21
2023-05-05T12:29:52.579Z,26.35
2023-05-05T12:30:53.857Z,26.47
2023-05-05T12:31:52.660Z,26.53
2023-05-05T12:32:52.663Z,26.37
2023-05-05T12:33:52.663Z,26.36
2023-05-05T12:34:52.690Z,26.37
2023-05-05T12:35:52.723Z,26.37
2023-05-05T12:36:52.752Z,26.29
2023-05-05T12:37:52.763Z,26.30
2023-05-05T12:38:52.833Z,26.30
2023-05-05T12:39:52.814Z,26.35
2023-05-05T12:40:52.811Z,26.35
2023-05-05T12:41:52.830Z,26.25
2023-05-05T12:42:52.885Z,26.28
2023-05-05T12:43:52.917Z,25.76
2023-05-05T12:44:52.941Z,25.73
2023-05-05T12:45:53.036Z,25.91
2023-05-05T12:46:53.031Z,25.94
2023-05-05T12:47:53.123Z,26.00
2023-05-05T12:48:53.011Z,25.96
2023-05-05T12:49:53.049Z,25.97
2023-05-05T12:50:53.100Z,25.90
2023-05-05T12:51:53.100Z,25.93
2023-05-05T12:52:53.058Z,25.65